createdAt,value
2022-12-17T00:01:04.232Z,99
2022-12-17T00:02:10.572Z,99
2022-12-17T00:03:17.730Z,99
2022-12-17T00:04:24.928Z,99
2022-12-17T00:05:31.909Z,99
2022-12-17T00:06:38.951Z,99
2022-12-17T00:07:45.645Z,99
2022-12-17T00:08:52.687Z,99
2022-12-17T00:09:59.757Z,99
2022-12-17T00:11:06.900Z,99
2022-12-17T00:13:20.637Z,99
2022-12-17T00:14:27.639Z,99
2022-12-17T00:15:34.822Z,99
2022-12-17T00:16:41.997Z,99
2022-12-17T00:17:49.074Z,99
2022-12-17T00:18:55.614Z,99
2022-12-17T00:20:02.698Z,99
2022-12-17T00:21:09.812Z,99
2022-12-17T00:22:16.896Z,99
2022-12-17T00:23:24.557Z,99
2022-12-17T00:24:30.727Z,99
2022-12-17T00:25:37.702Z,99
2022-12-17T00:26:44.842Z,99
2022-12-17T00:27:51.908Z,99
2022-12-17T00:28:59.023Z,99
2022-12-17T00:30:05.774Z,99
2022-12-17T00:31:12.712Z,99
2022-12-17T00:32:19.787Z,99
2022-12-17T00:33:27.019Z,99
2022-12-17T00:34:34.064Z,99
2022-12-17T00:35:40.713Z,99
2022-12-17T00:36:47.675Z,99
2022-12-17T00:37:54.860Z,99
2022-12-17T00:39:01.972Z,99
2022-12-17T00:40:08.996Z,99
2022-12-17T00:41:15.676Z,99
2022-12-17T00:42:22.727Z,99
2022-12-17T00:43:29.823Z,99
2022-12-17T00:44:36.929Z,99
2022-12-17T00:45:44.029Z,99
2022-12-17T00:46:50.748Z,99
2022-12-17T00:47:57.735Z,99
2022-12-17T00:49:05.169Z,99
2022-12-17T00:50:11.981Z,99
2022-12-17T00:51:19.076Z,99
2022-12-17T00:52:25.666Z,99
2022-12-17T00:53:33.096Z,99
2022-12-17T00:54:39.804Z,99
2022-12-17T00:55:49.978Z,99
2022-12-17T00:56:54.110Z,99
2022-12-17T00:58:00.642Z,99
2022-12-17T00:59:07.742Z,99
2022-12-17T01:00:14.852Z,99
2022-12-17T01:01:22.151Z,99
2022-12-17T01:02:29.214Z,99
2022-12-17T01:03:36.168Z,99
2022-12-17T01:04:42.810Z,99
2022-12-17T01:05:50.125Z,99
2022-12-17T01:06:57.033Z,99
2022-12-17T01:08:04.061Z,99
2022-12-17T01:09:10.692Z,99
2022-12-17T01:10:17.797Z,99
2022-12-17T01:11:24.882Z,99
2022-12-17T01:12:31.963Z,99
2022-12-17T01:13:39.438Z,99
2022-12-17T01:17:00.004Z,99
2022-12-17T01:18:06.987Z,99
2022-12-17T01:19:14.114Z,99
2022-12-17T01:20:20.754Z,99
2022-12-17T01:21:27.863Z,99
2022-12-17T01:22:34.925Z,99
2022-12-17T01:23:42.032Z,99
2022-12-17T01:24:49.099Z,99
2022-12-17T01:25:56.410Z,99
2022-12-17T01:27:02.819Z,99
2022-12-17T01:28:09.849Z,99
2022-12-17T01:29:16.984Z,99
2022-12-17T01:30:23.604Z,99
2022-12-17T01:31:35.064Z,99
2022-12-17T01:32:37.761Z,99
2022-12-17T01:33:44.936Z,99
2022-12-17T01:34:51.990Z,99
2022-12-17T01:35:58.617Z,99
2022-12-17T01:37:05.780Z,99
2022-12-17T01:38:12.795Z,99
2022-12-17T01:39:19.913Z,99
2022-12-17T01:40:27.022Z,99
2022-12-17T01:41:34.124Z,99
2022-12-17T01:42:40.669Z,99
2022-12-17T01:43:47.838Z,99
2022-12-17T01:44:54.954Z,99
2022-12-17T01:46:02.101Z,99
2022-12-17T01:47:08.678Z,99
2022-12-17T01:48:15.746Z,99
2022-12-17T01:49:22.857Z,99
2022-12-17T01:50:29.880Z,99
2022-12-17T01:51:37.581Z,99
2022-12-17T01:52:43.598Z,99
2022-12-17T01:53:50.903Z,99
2022-12-17T01:54:57.836Z,99
2022-12-17T01:56:05.003Z,99
2022-12-17T01:57:12.106Z,99
2022-12-17T01:58:18.623Z,99
2022-12-17T01:59:25.752Z,99
2022-12-17T02:00:32.982Z,99
2022-12-17T02:01:40.313Z,99
2022-12-17T02:02:47.211Z,99
2022-12-17T02:03:53.673Z,99
2022-12-17T02:05:00.822Z,99
2022-12-17T02:06:07.816Z,99
2022-12-17T02:07:15.135Z,99
2022-12-17T02:08:22.035Z,99
2022-12-17T02:09:28.645Z,99
2022-12-17T02:10:35.743Z,99
2022-12-17T02:11:42.874Z,99
2022-12-17T02:12:49.953Z,99
2022-12-17T02:13:57.069Z,99
2022-12-17T02:15:03.639Z,99
2022-12-17T02:16:10.841Z,99
2022-12-17T02:17:17.868Z,99
2022-12-17T02:18:25.001Z,99
2022-12-17T02:20:38.653Z,99
2022-12-17T02:21:45.856Z,99
2022-12-17T02:22:52.851Z,99
2022-12-17T02:23:59.969Z,99
2022-12-17T02:25:07.034Z,99
2022-12-17T02:26:13.700Z,99
2022-12-17T02:27:20.791Z,99
2022-12-17T02:28:27.874Z,99
2022-12-17T02:29:35.003Z,99
2022-12-17T02:30:42.041Z,99
2022-12-17T02:31:48.817Z,98
2022-12-17T02:32:55.814Z,98
2022-12-17T02:34:02.864Z,98
2022-12-17T02:35:10.013Z,98
2022-12-17T02:36:17.106Z,98
2022-12-17T02:37:23.770Z,98
2022-12-17T02:38:30.807Z,98
2022-12-17T02:39:37.897Z,98
2022-12-17T02:40:45.026Z,98
2022-12-17T02:41:52.128Z,98
2022-12-17T02:44:05.783Z,98
2022-12-17T02:45:12.890Z,98
2022-12-17T02:46:20.009Z,98
2022-12-17T02:47:27.150Z,98
2022-12-17T02:48:33.733Z,98
2022-12-17T02:49:40.789Z,98
2022-12-17T02:50:47.917Z,98
2022-12-17T02:51:55.106Z,98
2022-12-17T02:53:02.101Z,98
2022-12-17T02:54:08.671Z,96
2022-12-17T02:55:15.827Z,96
2022-12-17T02:56:22.891Z,96
2022-12-17T02:57:30.065Z,96
2022-12-17T02:58:37.071Z,96
2022-12-17T02:59:43.750Z,96
2022-12-17T03:00:50.931Z,96
2022-12-17T03:01:58.048Z,96
2022-12-17T03:03:05.136Z,94
2022-12-17T03:04:12.230Z,94
2022-12-17T03:05:43.339Z,93
2022-12-17T03:06:25.852Z,93
2022-12-17T03:07:32.925Z,93
2022-12-17T03:08:40.041Z,93
2022-12-17T03:09:47.133Z,93
2022-12-17T03:10:53.750Z,93
2022-12-17T03:12:00.827Z,93
2022-12-17T03:13:07.960Z,93
2022-12-17T03:14:15.064Z,93
2022-12-17T03:15:22.161Z,93
2022-12-17T03:16:34.093Z,93
2022-12-17T03:17:35.852Z,93
2022-12-17T03:18:42.942Z,93
2022-12-17T03:19:50.597Z,93
2022-12-17T03:20:57.113Z,93
2022-12-17T03:22:03.818Z,93
2022-12-17T03:24:17.929Z,94
2022-12-17T03:25:25.095Z,96
2022-12-17T03:26:32.210Z,94
2022-12-17T03:27:38.738Z,97
2022-12-17T03:28:45.875Z,94
2022-12-17T03:29:52.977Z,94
2022-12-17T03:31:00.090Z,94
2022-12-17T03:32:07.176Z,94
2022-12-17T03:33:13.773Z,93
2022-12-17T03:34:20.849Z,93
2022-12-17T03:35:27.934Z,93
2022-12-17T03:36:35.192Z,93
2022-12-17T03:37:41.693Z,93
2022-12-17T03:38:48.716Z,93
2022-12-17T03:39:55.845Z,93
2022-12-17T03:41:03.073Z,93
2022-12-17T03:42:10.147Z,93
2022-12-17T03:43:17.132Z,93
2022-12-17T03:44:23.753Z,93
2022-12-17T03:45:30.931Z,93
2022-12-17T03:46:37.971Z,93
2022-12-17T03:47:45.073Z,93
2022-12-17T03:48:51.672Z,93
2022-12-17T03:49:58.787Z,93
2022-12-17T03:51:05.916Z,93
2022-12-17T03:52:13.078Z,93
2022-12-17T03:53:20.090Z,93
2022-12-17T03:54:26.671Z,93
2022-12-17T03:55:33.783Z,93
2022-12-17T03:56:40.918Z,93
2022-12-17T03:57:47.944Z,93
2022-12-17T03:58:55.131Z,93
2022-12-17T04:00:01.762Z,93
2022-12-17T04:01:08.831Z,93
2022-12-17T04:02:16.232Z,93
2022-12-17T04:03:23.102Z,93
2022-12-17T04:04:30.123Z,93
2022-12-17T04:05:37.159Z,93
2022-12-17T04:06:44.021Z,93
2022-12-17T04:07:50.899Z,93
2022-12-17T04:08:58.000Z,93
2022-12-17T04:10:05.123Z,93
2022-12-17T04:12:18.843Z,93
2022-12-17T04:13:25.923Z,93
2022-12-17T04:14:32.995Z,93
2022-12-17T04:15:40.196Z,93
2022-12-17T04:16:46.723Z,93
2022-12-17T04:17:53.837Z,93
2022-12-17T04:19:00.924Z,93
2022-12-17T04:20:08.031Z,93
2022-12-17T04:21:15.114Z,93
2022-12-17T04:22:21.751Z,93
2022-12-17T04:23:28.818Z,93
2022-12-17T04:24:35.933Z,93
2022-12-17T04:25:43.055Z,93
2022-12-17T04:27:57.315Z,93
2022-12-17T04:29:03.843Z,93
2022-12-17T04:30:10.970Z,93
2022-12-17T04:31:18.033Z,93
2022-12-17T04:32:25.138Z,93
2022-12-17T04:33:31.685Z,93
2022-12-17T04:34:38.785Z,93
2022-12-17T04:35:45.931Z,93
2022-12-17T04:36:53.179Z,93
2022-12-17T04:38:00.146Z,93
2022-12-17T04:39:06.727Z,93
2022-12-17T04:40:13.879Z,93
2022-12-17T04:41:20.977Z,93
2022-12-17T04:42:28.074Z,94
2022-12-17T04:43:35.496Z,94
2022-12-17T04:44:41.784Z,96
2022-12-17T04:45:50.243Z,96
2022-12-17T04:46:55.975Z,93
2022-12-17T04:48:03.612Z,93
2022-12-17T04:49:10.151Z,93
2022-12-17T04:50:16.738Z,93
2022-12-17T04:51:23.896Z,93
2022-12-17T04:52:31.046Z,93
2022-12-17T04:53:38.449Z,92
2022-12-17T04:54:45.323Z,92
2022-12-17T04:55:51.823Z,92
2022-12-17T04:56:58.931Z,92
2022-12-17T04:58:05.928Z,92
2022-12-17T04:59:13.161Z,92
2022-12-17T05:00:20.178Z,92
2022-12-17T05:01:26.874Z,92
2022-12-17T05:02:38.240Z,92
2022-12-17T05:03:41.553Z,92
2022-12-17T05:04:48.116Z,92
2022-12-17T05:05:55.194Z,92
2022-12-17T05:07:01.877Z,92
2022-12-17T05:08:08.847Z,92
2022-12-17T05:09:15.987Z,92
2022-12-17T05:10:23.111Z,92
2022-12-17T05:11:30.171Z,92
2022-12-17T05:12:36.842Z,93
2022-12-17T05:13:43.913Z,93
2022-12-17T05:14:50.987Z,93
2022-12-17T05:15:58.166Z,93
2022-12-17T05:17:05.229Z,92
2022-12-17T05:18:11.788Z,93
2022-12-17T05:19:18.894Z,93
2022-12-17T05:20:26.002Z,93
2022-12-17T05:21:33.487Z,93
2022-12-17T05:22:40.285Z,93
2022-12-17T05:23:46.830Z,93
2022-12-17T05:24:53.938Z,93
2022-12-17T05:26:00.958Z,93
2022-12-17T05:27:08.173Z,93
2022-12-17T05:28:15.258Z,93
2022-12-17T05:29:21.841Z,93
2022-12-17T05:31:36.168Z,93
2022-12-17T05:32:43.158Z,93
2022-12-17T05:33:49.696Z,93
2022-12-17T05:34:57.099Z,93
2022-12-17T05:36:03.951Z,93
2022-12-17T05:37:11.133Z,93
2022-12-17T05:38:18.103Z,93
2022-12-17T05:40:31.853Z,94
2022-12-17T05:41:38.969Z,96
2022-12-17T05:42:46.056Z,96
2022-12-17T05:43:53.085Z,98
2022-12-17T05:44:59.669Z,98
2022-12-17T05:46:06.892Z,98
2022-12-17T05:47:13.932Z,98
2022-12-17T05:48:21.094Z,98
2022-12-17T05:49:28.653Z,98
2022-12-17T05:50:34.765Z,98
2022-12-17T05:51:41.930Z,98
2022-12-17T05:52:48.923Z,98
2022-12-17T05:53:56.062Z,98
2022-12-17T05:55:03.133Z,98
2022-12-17T05:56:09.721Z,98
2022-12-17T05:57:17.070Z,98
2022-12-17T05:58:24.009Z,98
2022-12-17T05:59:31.078Z,98
2022-12-17T06:00:38.141Z,98
2022-12-17T06:01:44.789Z,98
2022-12-17T06:02:51.972Z,98
2022-12-17T06:03:58.985Z,98
2022-12-17T06:05:06.073Z,98
2022-12-17T06:06:13.178Z,98
2022-12-17T06:07:19.772Z,98
2022-12-17T06:08:26.861Z,98
2022-12-17T06:09:33.948Z,98
2022-12-17T06:10:41.015Z,98
2022-12-17T06:11:48.184Z,98
2022-12-17T06:12:54.773Z,98
2022-12-17T06:14:01.846Z,98
2022-12-17T06:15:08.973Z,98
2022-12-17T06:16:16.666Z,98
2022-12-17T06:17:23.268Z,98
2022-12-17T06:18:29.762Z,98
2022-12-17T06:19:36.868Z,98
2022-12-17T06:20:43.971Z,98
2022-12-17T06:21:51.087Z,98
2022-12-17T06:22:58.149Z,98
2022-12-17T06:24:04.762Z,98
2022-12-17T06:25:11.890Z,98
2022-12-17T06:26:18.978Z,96
2022-12-17T06:27:26.234Z,94
2022-12-17T06:28:33.190Z,93
2022-12-17T06:29:39.738Z,93
2022-12-17T06:30:46.921Z,93
2022-12-17T06:31:54.013Z,93
2022-12-17T06:33:01.078Z,93
2022-12-17T06:35:14.831Z,93
2022-12-17T06:36:23.057Z,93
2022-12-17T06:37:29.038Z,93
2022-12-17T06:38:36.105Z,93
2022-12-17T06:39:43.217Z,93
2022-12-17T06:40:49.780Z,93
2022-12-17T06:42:02.297Z,93
2022-12-17T06:43:04.003Z,93
2022-12-17T06:44:11.273Z,93
2022-12-17T06:45:18.206Z,93
2022-12-17T06:46:24.871Z,93
2022-12-17T06:47:32.001Z,93
2022-12-17T06:48:39.018Z,93
2022-12-17T06:49:46.134Z,93
2022-12-17T06:50:53.210Z,93
2022-12-17T06:51:59.868Z,93
2022-12-17T06:53:07.436Z,93
2022-12-17T06:54:14.043Z,93
2022-12-17T06:55:21.100Z,93
2022-12-17T06:56:28.237Z,93
2022-12-17T06:57:39.159Z,92
2022-12-17T06:58:41.899Z,92
2022-12-17T06:59:49.002Z,93
2022-12-17T07:00:56.219Z,92
2022-12-17T07:02:03.431Z,92
2022-12-17T07:03:14.568Z,92
2022-12-17T07:04:16.922Z,92
2022-12-17T07:05:24.063Z,92
2022-12-17T07:06:31.163Z,92
2022-12-17T07:08:44.989Z,92
2022-12-17T07:09:51.930Z,92
2022-12-17T07:10:59.033Z,92
2022-12-17T07:12:06.225Z,92
2022-12-17T07:13:13.265Z,92
2022-12-17T07:14:19.826Z,92
2022-12-17T07:15:26.918Z,92
2022-12-17T07:16:34.194Z,92
2022-12-17T07:17:41.257Z,92
2022-12-17T07:18:47.767Z,92
2022-12-17T07:19:54.838Z,92
2022-12-17T07:21:02.029Z,93
2022-12-17T07:22:09.129Z,93
2022-12-17T07:23:16.174Z,93
2022-12-17T07:24:22.744Z,93
2022-12-17T07:25:29.805Z,96
2022-12-17T07:26:36.957Z,96
2022-12-17T07:27:44.091Z,96
2022-12-17T07:28:51.155Z,96
2022-12-17T07:29:57.733Z,93
2022-12-17T07:31:04.897Z,93
2022-12-17T07:32:12.066Z,93
2022-12-17T07:33:19.061Z,93
2022-12-17T07:34:26.218Z,93
2022-12-17T07:35:33.290Z,93
2022-12-17T07:36:39.859Z,93
2022-12-17T07:38:54.174Z,93
2022-12-17T07:40:01.209Z,93
2022-12-17T07:41:07.720Z,93
2022-12-17T07:42:14.917Z,93
2022-12-17T07:43:22.014Z,93
2022-12-17T07:44:29.625Z,92
2022-12-17T07:45:36.281Z,93
2022-12-17T07:46:42.883Z,92
2022-12-17T07:47:49.913Z,93
2022-12-17T07:48:57.002Z,92
2022-12-17T07:50:04.101Z,92
2022-12-17T07:51:11.214Z,92
2022-12-17T07:52:17.839Z,92
2022-12-17T07:53:24.913Z,92
2022-12-17T07:54:31.976Z,92
2022-12-17T07:55:39.091Z,92
2022-12-17T07:56:46.744Z,92
2022-12-17T07:57:52.945Z,92
2022-12-17T07:58:59.900Z,92
2022-12-17T08:00:06.980Z,92
2022-12-17T08:01:14.328Z,92
2022-12-17T08:02:21.480Z,92
2022-12-17T08:03:27.964Z,92
2022-12-17T08:04:35.062Z,92
2022-12-17T08:05:41.994Z,92
2022-12-17T08:06:49.100Z,92
2022-12-17T08:07:56.250Z,92
2022-12-17T08:09:02.842Z,92
2022-12-17T08:10:09.907Z,91
2022-12-17T08:11:16.986Z,91
2022-12-17T08:12:24.122Z,91
2022-12-17T08:13:31.277Z,91
2022-12-17T08:14:37.818Z,91
2022-12-17T08:15:44.943Z,91
2022-12-17T08:16:52.149Z,91
2022-12-17T08:17:59.152Z,91
2022-12-17T08:19:06.259Z,91
2022-12-17T08:20:12.798Z,91
2022-12-17T08:21:19.917Z,91
2022-12-17T08:22:27.092Z,91
2022-12-17T08:23:34.530Z,91
2022-12-17T08:24:41.252Z,91
2022-12-17T08:25:50.168Z,91
2022-12-17T08:26:54.977Z,91
2022-12-17T08:28:04.567Z,91
2022-12-17T08:29:09.265Z,90
2022-12-17T08:30:16.247Z,90
2022-12-17T08:31:23.006Z,90
2022-12-17T08:32:29.414Z,90
2022-12-17T08:33:37.530Z,90
2022-12-17T08:34:44.315Z,90
2022-12-17T08:36:57.834Z,89
2022-12-17T08:38:04.963Z,89
2022-12-17T08:39:12.118Z,89
2022-12-17T08:40:19.154Z,89
2022-12-17T08:42:32.905Z,89
2022-12-17T08:43:40.201Z,89
2022-12-17T08:44:47.129Z,89
2022-12-17T08:45:54.240Z,89
2022-12-17T08:47:01.302Z,89
2022-12-17T08:48:07.910Z,89
2022-12-17T08:49:14.964Z,89
2022-12-17T08:50:22.214Z,89
2022-12-17T08:51:29.187Z,89
2022-12-17T08:52:35.763Z,89
2022-12-17T08:53:43.287Z,90
2022-12-17T08:54:49.969Z,90
2022-12-17T08:55:57.161Z,90
2022-12-17T08:57:04.189Z,90
2022-12-17T08:58:10.800Z,90
2022-12-17T08:59:17.886Z,90
2022-12-17T09:00:25.473Z,89
2022-12-17T09:01:32.268Z,89
2022-12-17T09:02:39.376Z,89
2022-12-17T09:03:45.848Z,89
2022-12-17T09:04:52.858Z,88
2022-12-17T09:05:59.976Z,88
2022-12-17T09:07:07.045Z,88
2022-12-17T09:08:14.247Z,87
2022-12-17T09:09:21.353Z,87
2022-12-17T09:10:27.882Z,87
2022-12-17T09:11:35.023Z,87
2022-12-17T09:12:42.670Z,86
2022-12-17T09:13:49.222Z,86
2022-12-17T09:14:56.322Z,86
2022-12-17T09:16:02.934Z,86
2022-12-17T09:17:10.121Z,86
2022-12-17T09:18:17.116Z,85
2022-12-17T09:19:24.346Z,85
2022-12-17T09:20:31.334Z,84
2022-12-17T09:21:37.905Z,84
2022-12-17T09:22:45.092Z,84
2022-12-17T09:23:52.114Z,84
2022-12-17T09:24:59.187Z,84
2022-12-17T09:26:06.326Z,83
2022-12-17T09:27:12.940Z,83
2022-12-17T09:28:19.970Z,83
2022-12-17T09:29:27.112Z,83
2022-12-17T09:30:34.318Z,82
2022-12-17T09:31:41.372Z,82
2022-12-17T09:32:47.967Z,82
2022-12-17T09:33:55.174Z,82
2022-12-17T09:35:02.155Z,82
2022-12-17T09:36:09.233Z,82
2022-12-17T09:37:16.039Z,82
2022-12-17T09:38:22.947Z,82
2022-12-17T09:39:30.053Z,82
2022-12-17T09:40:37.119Z,82
2022-12-17T09:41:44.283Z,82
2022-12-17T09:42:53.501Z,82
2022-12-17T09:43:57.913Z,82
2022-12-17T09:46:12.188Z,82
2022-12-17T09:47:19.261Z,81
2022-12-17T09:48:32.101Z,81
2022-12-17T09:49:32.934Z,81
2022-12-17T09:50:40.062Z,81
2022-12-17T09:51:47.154Z,81
2022-12-17T09:52:54.300Z,81
2022-12-17T09:54:00.917Z,81
2022-12-17T09:55:07.424Z,80
2022-12-17T09:55:07.905Z,80
2022-12-17T09:56:15.050Z,80
2022-12-17T09:57:22.202Z,80
2022-12-17T09:58:29.283Z,80
2022-12-17T09:59:35.953Z,80
2022-12-17T10:00:42.994Z,80
2022-12-17T10:01:50.190Z,80
2022-12-17T10:02:57.398Z,80
2022-12-17T10:05:10.977Z,80
2022-12-17T10:06:22.327Z,80
2022-12-17T10:07:25.061Z,80
2022-12-17T10:08:32.216Z,80
2022-12-17T10:09:39.257Z,80
2022-12-17T10:10:45.943Z,80
2022-12-17T10:11:52.985Z,80
2022-12-17T10:13:00.044Z,80
2022-12-17T10:14:07.136Z,80
2022-12-17T10:15:14.321Z,80
2022-12-17T10:16:21.037Z,80
2022-12-17T10:17:27.938Z,79
2022-12-17T10:18:35.111Z,79
2022-12-17T10:19:42.196Z,79
2022-12-17T10:20:49.268Z,78
2022-12-17T10:21:55.957Z,78
2022-12-17T10:23:03.022Z,78
2022-12-17T10:24:14.076Z,78
2022-12-17T10:25:17.232Z,77
2022-12-17T10:26:24.331Z,77
2022-12-17T10:27:30.872Z,77
2022-12-17T10:28:37.993Z,77
2022-12-17T10:29:48.228Z,77
2022-12-17T10:30:52.299Z,76
2022-12-17T10:31:58.790Z,76
2022-12-17T10:33:05.934Z,76
2022-12-17T10:34:13.026Z,76
2022-12-17T10:35:20.128Z,76
2022-12-17T10:36:27.232Z,76
2022-12-17T10:37:34.369Z,76
2022-12-17T10:38:40.863Z,75
2022-12-17T10:39:47.964Z,75
2022-12-17T10:40:55.137Z,75
2022-12-17T10:42:02.288Z,75
2022-12-17T10:43:08.759Z,74
2022-12-17T10:44:15.898Z,74
2022-12-17T10:45:23.004Z,74
2022-12-17T10:46:30.200Z,74
2022-12-17T10:47:37.285Z,74
2022-12-17T10:49:50.940Z,74
2022-12-17T10:50:57.979Z,74
2022-12-17T10:52:05.178Z,74
2022-12-17T10:53:12.266Z,74
2022-12-17T10:54:18.980Z,74
2022-12-17T10:55:25.974Z,74
2022-12-17T10:56:33.040Z,74
2022-12-17T10:57:40.191Z,74
2022-12-17T10:58:47.209Z,73
2022-12-17T10:59:54.371Z,73
2022-12-17T11:01:01.011Z,73
2022-12-17T11:02:08.227Z,73
2022-12-17T11:03:15.253Z,73
2022-12-17T11:04:22.268Z,73
2022-12-17T11:05:28.788Z,73
2022-12-17T11:06:40.483Z,73
2022-12-17T11:07:43.606Z,73
2022-12-17T11:08:50.160Z,73
2022-12-17T11:09:57.252Z,73
2022-12-17T11:11:04.399Z,73
2022-12-17T11:12:11.003Z,73
2022-12-17T11:13:18.070Z,73
2022-12-17T11:14:25.195Z,73
2022-12-17T11:15:32.445Z,73
2022-12-17T11:16:38.837Z,73
2022-12-17T11:17:46.088Z,73
2022-12-17T11:18:53.095Z,73
2022-12-17T11:20:00.153Z,73
2022-12-17T11:21:07.223Z,73
2022-12-17T11:22:13.896Z,73
2022-12-17T11:23:20.957Z,73
2022-12-17T11:24:28.103Z,73
2022-12-17T11:25:35.195Z,73
2022-12-17T11:26:42.329Z,73
2022-12-17T11:27:48.916Z,74
2022-12-17T11:28:56.057Z,74
2022-12-17T11:30:03.065Z,74
2022-12-17T11:31:10.234Z,74
2022-12-17T11:32:17.347Z,74
2022-12-17T11:33:23.904Z,74
2022-12-17T11:34:30.938Z,74
2022-12-17T11:35:38.051Z,74
2022-12-17T11:36:45.222Z,74
2022-12-17T11:37:52.291Z,74
2022-12-17T11:38:58.848Z,75
2022-12-17T11:40:05.982Z,75
2022-12-17T11:41:13.116Z,75
2022-12-17T11:42:20.244Z,75
2022-12-17T11:43:27.300Z,75
2022-12-17T11:44:33.915Z,76
2022-12-17T11:45:41.030Z,76
2022-12-17T11:46:48.194Z,76
2022-12-17T11:47:59.195Z,76
2022-12-17T11:49:01.850Z,76
2022-12-17T11:50:08.871Z,76
2022-12-17T11:51:16.041Z,77
2022-12-17T11:53:30.304Z,76
2022-12-17T11:54:37.314Z,76
2022-12-17T11:55:43.932Z,76
2022-12-17T11:56:51.053Z,76
2022-12-17T11:57:58.144Z,76
2022-12-17T11:59:04.681Z,76
2022-12-17T12:00:12.403Z,76
2022-12-17T12:01:18.981Z,76
2022-12-17T12:02:26.114Z,76
2022-12-17T12:03:33.272Z,76
2022-12-17T12:04:40.234Z,76
2022-12-17T12:05:48.932Z,76
2022-12-17T12:06:53.963Z,76
2022-12-17T12:08:01.071Z,76
2022-12-17T12:09:08.122Z,76
2022-12-17T12:10:15.261Z,76
2022-12-17T12:11:25.785Z,76
2022-12-17T12:12:28.983Z,76
2022-12-17T12:13:36.046Z,76
2022-12-17T12:14:43.134Z,76
2022-12-17T12:15:50.326Z,76
2022-12-17T12:16:56.864Z,76
2022-12-17T12:18:03.947Z,76
2022-12-17T12:19:11.081Z,76
2022-12-17T12:20:18.109Z,76
2022-12-17T12:21:25.265Z,77
2022-12-17T12:22:32.429Z,77
2022-12-17T12:23:38.923Z,77
2022-12-17T12:24:46.090Z,77
2022-12-17T12:25:53.112Z,77
2022-12-17T12:27:00.292Z,77
2022-12-17T12:28:06.839Z,77
2022-12-17T12:29:13.987Z,77
2022-12-17T12:30:21.103Z,77
2022-12-17T12:31:28.270Z,77
2022-12-17T12:32:35.322Z,77
2022-12-17T12:33:41.882Z,77
2022-12-17T12:34:48.951Z,77
2022-12-17T12:35:56.086Z,77
2022-12-17T12:37:03.270Z,77
2022-12-17T12:38:10.342Z,77
2022-12-17T12:39:16.863Z,77
2022-12-17T12:40:23.931Z,77
2022-12-17T12:41:31.093Z,77
2022-12-17T12:42:38.219Z,77
2022-12-17T12:43:45.272Z,77
2022-12-17T12:44:52.369Z,77
2022-12-17T12:45:59.084Z,77
2022-12-17T12:47:06.111Z,77
2022-12-17T12:48:13.387Z,77
2022-12-17T12:49:20.309Z,77
2022-12-17T12:50:26.869Z,77
2022-12-17T12:51:34.475Z,77
2022-12-17T12:52:41.152Z,77
2022-12-17T12:53:48.213Z,77
2022-12-17T12:54:55.322Z,77
2022-12-17T12:57:08.936Z,77
2022-12-17T12:58:16.184Z,77
2022-12-17T12:59:23.202Z,76
2022-12-17T13:00:30.320Z,76
2022-12-17T13:01:37.067Z,76
2022-12-17T13:02:44.174Z,76
2022-12-17T13:03:51.153Z,76
2022-12-17T13:04:58.189Z,76
2022-12-17T13:06:05.309Z,76
2022-12-17T13:07:11.940Z,76
2022-12-17T13:08:19.002Z,76
2022-12-17T13:09:32.210Z,76
2022-12-17T13:10:33.242Z,76
2022-12-17T13:11:40.323Z,76
2022-12-17T13:12:46.998Z,76
2022-12-17T13:13:54.164Z,76
2022-12-17T13:15:01.640Z,76
2022-12-17T13:16:08.290Z,76
2022-12-17T13:17:15.412Z,76
2022-12-17T13:18:21.964Z,77
2022-12-17T13:19:29.032Z,77
2022-12-17T13:20:36.134Z,77
2022-12-17T13:21:43.218Z,77
2022-12-17T13:22:50.322Z,77
2022-12-17T13:23:56.938Z,77
2022-12-17T13:25:04.029Z,77
2022-12-17T13:26:11.173Z,77
2022-12-17T13:27:18.284Z,78
2022-12-17T13:28:25.923Z,78
2022-12-17T13:29:32.009Z,78
2022-12-17T13:30:39.024Z,78
2022-12-17T13:31:46.249Z,78
2022-12-17T13:32:53.280Z,78
2022-12-17T13:34:00.316Z,78
2022-12-17T13:35:10.297Z,78
2022-12-17T13:36:14.062Z,78
2022-12-17T13:38:28.261Z,78
2022-12-17T13:39:34.876Z,78
2022-12-17T13:40:41.984Z,78
2022-12-17T13:41:49.052Z,78
2022-12-17T13:42:56.189Z,78
2022-12-17T13:44:03.289Z,78
2022-12-17T13:45:09.842Z,78
2022-12-17T13:46:16.957Z,78
2022-12-17T13:47:24.081Z,78
2022-12-17T13:48:31.170Z,78
2022-12-17T13:49:38.230Z,78
2022-12-17T13:50:44.965Z,79
2022-12-17T13:51:51.981Z,79
2022-12-17T13:52:59.122Z,79
2022-12-17T13:54:06.177Z,79
2022-12-17T13:55:13.322Z,79
2022-12-17T13:56:20.404Z,79
2022-12-17T13:57:27.026Z,79
2022-12-17T13:58:34.461Z,79
2022-12-17T14:00:48.389Z,80
2022-12-17T14:01:54.988Z,80
2022-12-17T14:03:02.021Z,80
2022-12-17T14:04:09.131Z,80
2022-12-17T14:05:16.151Z,80
2022-12-17T14:06:23.285Z,80
2022-12-17T14:07:29.937Z,80
2022-12-17T14:08:37.251Z,80
2022-12-17T14:09:44.081Z,81
2022-12-17T14:10:51.230Z,81
2022-12-17T14:11:58.260Z,81
2022-12-17T14:13:04.912Z,81
2022-12-17T14:14:12.020Z,81
2022-12-17T14:15:19.094Z,82
2022-12-17T14:16:26.221Z,82
2022-12-17T14:17:33.377Z,82
2022-12-17T14:18:40.449Z,82
2022-12-17T14:19:47.003Z,82
2022-12-17T14:20:54.113Z,82
2022-12-17T14:22:01.244Z,82
2022-12-17T14:23:08.366Z,82
2022-12-17T14:24:14.929Z,82
2022-12-17T14:25:22.027Z,81
2022-12-17T14:26:29.059Z,81
2022-12-17T14:27:36.212Z,81
2022-12-17T14:28:48.721Z,81
2022-12-17T14:29:49.852Z,81
2022-12-17T14:31:25.639Z,81
2022-12-17T14:32:04.321Z,81
2022-12-17T14:33:11.317Z,81
2022-12-17T14:34:18.350Z,81
2022-12-17T14:35:24.898Z,81
2022-12-17T14:36:32.048Z,81
2022-12-17T14:37:39.184Z,81
2022-12-17T14:38:48.680Z,81
2022-12-17T14:39:53.372Z,80
2022-12-17T14:40:59.892Z,80
2022-12-17T14:42:07.035Z,80
2022-12-17T14:43:14.167Z,80
2022-12-17T14:44:21.557Z,80
2022-12-17T14:45:28.331Z,80
2022-12-17T14:46:34.937Z,80
2022-12-17T14:47:42.068Z,80
2022-12-17T14:48:49.195Z,80
2022-12-17T14:49:56.417Z,80
2022-12-17T14:51:02.909Z,80
2022-12-17T14:52:09.899Z,80
2022-12-17T14:53:17.081Z,80
2022-12-17T14:54:24.237Z,80
2022-12-17T14:55:31.241Z,80
2022-12-17T14:56:38.352Z,80
2022-12-17T14:57:45.023Z,80
2022-12-17T14:58:52.062Z,80
2022-12-17T14:59:59.128Z,80
2022-12-17T15:01:06.343Z,80
2022-12-17T15:02:13.042Z,80
2022-12-17T15:03:20.188Z,80
2022-12-17T15:04:27.055Z,80
2022-12-17T15:06:41.283Z,80
2022-12-17T15:07:48.328Z,80
2022-12-17T15:08:54.933Z,80
2022-12-17T15:10:02.162Z,80
2022-12-17T15:11:09.119Z,80
2022-12-17T15:12:16.259Z,80
2022-12-17T15:13:22.942Z,80
2022-12-17T15:14:29.975Z,80
2022-12-17T15:15:37.081Z,80
2022-12-17T15:16:44.264Z,80
2022-12-17T15:17:51.382Z,80
2022-12-17T15:18:57.880Z,80
2022-12-17T15:20:05.001Z,80
2022-12-17T15:21:12.056Z,80
2022-12-17T15:23:26.280Z,80
2022-12-17T15:24:32.862Z,80
2022-12-17T15:25:45.650Z,80
2022-12-17T15:26:47.036Z,80
2022-12-17T15:27:54.268Z,80
2022-12-17T15:29:01.310Z,80
2022-12-17T15:30:07.902Z,80
2022-12-17T15:31:15.101Z,80
2022-12-17T15:32:22.119Z,80
2022-12-17T15:33:29.156Z,80
2022-12-17T15:34:36.293Z,80
2022-12-17T15:35:42.899Z,80
2022-12-17T15:36:49.996Z,80
2022-12-17T15:37:57.110Z,80
2022-12-17T15:39:04.242Z,80
2022-12-17T15:40:11.314Z,80
2022-12-17T15:41:17.895Z,80
2022-12-17T15:42:25.082Z,80
2022-12-17T15:43:32.162Z,80
2022-12-17T15:44:39.215Z,80
2022-12-17T15:45:46.420Z,80
2022-12-17T15:46:52.935Z,80
2022-12-17T15:48:00.013Z,80
2022-12-17T15:49:07.065Z,80
2022-12-17T15:50:14.203Z,80
2022-12-17T15:51:21.386Z,80
2022-12-17T15:52:27.994Z,80
2022-12-17T15:53:35.378Z,80
2022-12-17T15:54:42.164Z,80
2022-12-17T15:55:50.322Z,80
2022-12-17T15:56:56.360Z,80
2022-12-17T15:58:02.914Z,80
2022-12-17T15:59:09.987Z,80
2022-12-17T16:00:17.084Z,80
2022-12-17T16:01:24.341Z,80
2022-12-17T16:02:31.647Z,80
2022-12-17T16:03:38.060Z,80
2022-12-17T16:04:45.013Z,80
2022-12-17T16:05:52.119Z,80
2022-12-17T16:06:59.193Z,80
2022-12-17T16:08:06.442Z,80
2022-12-17T16:09:12.970Z,80
2022-12-17T16:10:20.025Z,80
2022-12-17T16:11:27.142Z,80
2022-12-17T16:12:34.238Z,80
2022-12-17T16:13:41.412Z,80
2022-12-17T16:14:47.962Z,80
2022-12-17T16:15:58.278Z,80
2022-12-17T16:17:02.270Z,80
2022-12-17T16:18:09.310Z,80
2022-12-17T16:19:16.349Z,79
2022-12-17T16:20:23.015Z,79
2022-12-17T16:21:30.005Z,79